createdAt,value
2023-02-24T00:02:06.144Z,86.47
2023-02-24T00:04:41.465Z,86.66
2023-02-24T00:07:10.973Z,86.13
2023-02-24T00:09:39.191Z,86.14
2023-02-24T00:12:09.037Z,85.86
2023-02-24T00:14:38.001Z,85.91
2023-02-24T00:17:08.135Z,85.78
2023-02-24T00:19:38.511Z,85.37
2023-02-24T00:22:07.223Z,85.22
2023-02-24T00:24:34.682Z,85.04
2023-02-24T00:27:07.580Z,84.92
2023-02-24T00:29:37.564Z,85.18
2023-02-24T00:32:07.276Z,84.80
2023-02-24T00:34:37.595Z,84.53
2023-02-24T00:37:09.036Z,84.65
2023-02-24T00:39:41.400Z,84.83
2023-02-24T00:42:11.598Z,84.67
2023-02-24T00:44:41.204Z,84.56
2023-02-24T00:47:10.479Z,84.51
2023-02-24T00:49:42.631Z,84.69
2023-02-24T00:52:13.848Z,84.78
2023-02-24T00:54:45.931Z,84.41
2023-02-24T00:57:12.796Z,84.52
2023-02-24T00:59:39.662Z,84.74
2023-02-24T01:02:07.696Z,84.50
2023-02-24T01:04:35.342Z,85.01
2023-02-24T01:07:02.169Z,81.94
2023-02-24T01:09:31.356Z,74.15
2023-02-24T01:12:17.351Z,71.72
2023-02-24T01:14:49.617Z,70.76
2023-02-24T01:17:18.423Z,71.53
2023-02-24T01:19:47.351Z,69.78
2023-02-24T01:22:16.104Z,69.79
2023-02-24T01:24:45.078Z,69.72
2023-02-24T01:27:14.499Z,69.25
2023-02-24T01:29:41.519Z,70.66
2023-02-24T01:32:16.841Z,71.26
2023-02-24T01:34:44.171Z,72.16
2023-02-24T01:37:16.287Z,72.44
2023-02-24T01:39:45.258Z,72.85
2023-02-24T01:42:16.956Z,73.48
2023-02-24T01:44:43.779Z,74.98
2023-02-24T01:47:11.509Z,75.43
2023-02-24T01:49:42.669Z,75.22
2023-02-24T01:52:20.018Z,75.43
2023-02-24T01:54:55.170Z,76.07
2023-02-24T01:57:26.004Z,75.65
2023-02-24T02:00:02.122Z,76.49
2023-02-24T02:02:29.604Z,76.33
2023-02-24T02:05:04.913Z,76.13
2023-02-24T02:07:32.268Z,77.49
2023-02-24T02:10:03.973Z,78.26
2023-02-24T02:12:37.064Z,78.54
2023-02-24T02:15:05.956Z,79.84
2023-02-24T02:17:51.400Z,81.06
2023-02-24T02:20:42.363Z,80.55
2023-02-24T02:23:15.228Z,80.03
2023-02-24T02:25:45.185Z,78.20
2023-02-24T02:28:36.676Z,77.00
2023-02-24T02:31:16.930Z,76.83
2023-02-24T02:34:07.696Z,77.34
2023-02-24T02:37:08.234Z,77.44
2023-02-24T02:39:48.158Z,76.81
2023-02-24T02:42:30.183Z,76.59
2023-02-24T02:45:08.846Z,76.34
2023-02-24T02:47:47.872Z,76.30
2023-02-24T02:50:46.932Z,75.24
2023-02-24T02:53:27.781Z,74.08
2023-02-24T02:56:09.634Z,75.28
2023-02-24T02:58:42.250Z,74.67
2023-02-24T03:01:11.186Z,73.40
2023-02-24T03:03:45.736Z,73.17
2023-02-24T03:06:27.624Z,72.92
2023-02-24T03:09:12.442Z,73.85
2023-02-24T03:11:41.418Z,73.31
2023-02-24T03:14:12.419Z,72.70
2023-02-24T03:16:43.696Z,72.38
2023-02-24T03:19:14.509Z,72.54
2023-02-24T03:21:48.164Z,73.18
2023-02-24T03:24:15.833Z,73.29
2023-02-24T03:26:52.852Z,74.69
2023-02-24T03:30:07.479Z,75.15
2023-02-24T03:32:58.597Z,74.96
2023-02-24T03:35:31.161Z,75.25
2023-02-24T03:38:00.598Z,75.09
2023-02-24T03:40:35.987Z,74.36
2023-02-24T03:43:27.988Z,75.10
2023-02-24T03:46:00.479Z,75.17
2023-02-24T03:48:28.797Z,75.10
2023-02-24T03:50:59.390Z,73.48
2023-02-24T03:54:01.659Z,71.66
2023-02-24T03:56:45.968Z,70.09
2023-02-24T03:59:52.901Z,69.70
2023-02-24T04:02:28.611Z,69.87
2023-02-24T04:05:12.112Z,70.46
2023-02-24T04:08:00.488Z,71.48
2023-02-24T04:10:39.186Z,70.61
2023-02-24T04:13:22.664Z,70.68
2023-02-24T04:15:59.463Z,70.31
2023-02-24T04:18:31.004Z,70.87
2023-02-24T04:21:01.909Z,70.23
2023-02-24T04:23:38.728Z,70.73
2023-02-24T04:26:08.965Z,69.34
2023-02-24T04:28:36.169Z,68.55
2023-02-24T04:31:10.172Z,68.96
2023-02-24T04:33:38.664Z,68.82
2023-02-24T04:36:06.110Z,67.69
2023-02-24T04:38:37.122Z,66.72
2023-02-24T04:41:05.051Z,66.92
2023-02-24T04:43:31.859Z,66.79
2023-02-24T04:45:58.684Z,66.61
2023-02-24T04:48:25.514Z,66.22
2023-02-24T04:50:55.229Z,66.13
2023-02-24T04:53:27.200Z,66.01
2023-02-24T04:55:56.235Z,66.57
2023-02-24T04:58:28.980Z,64.18
2023-02-24T05:00:56.475Z,64.70
2023-02-24T05:03:28.231Z,64.03
2023-02-24T05:05:58.276Z,63.51
2023-02-24T05:08:27.294Z,63.53
2023-02-24T05:10:54.751Z,62.83
2023-02-24T05:13:27.234Z,62.06
2023-02-24T05:15:59.437Z,63.28
2023-02-24T05:18:29.604Z,63.20
2023-02-24T05:21:15.948Z,62.53
2023-02-24T05:23:45.421Z,62.50
2023-02-24T05:26:17.665Z,63.26
2023-02-24T05:28:52.188Z,61.71
2023-02-24T05:31:26.547Z,61.90
2023-02-24T05:33:58.954Z,61.44
2023-02-24T05:36:29.241Z,61.95
2023-02-24T05:39:04.566Z,61.02
2023-02-24T05:41:36.047Z,60.82
2023-02-24T05:44:08.675Z,61.16
2023-02-24T05:46:38.631Z,61.32
2023-02-24T05:49:11.955Z,62.01
2023-02-24T05:51:39.363Z,62.00
2023-02-24T05:54:08.791Z,62.62
2023-02-24T05:56:38.725Z,62.36
2023-02-24T05:59:11.294Z,62.35
2023-02-24T06:01:45.848Z,62.43
2023-02-24T06:04:20.941Z,62.23
2023-02-24T06:06:52.640Z,62.95
2023-02-24T06:09:23.288Z,62.33
2023-02-24T06:11:50.444Z,62.17
2023-02-24T06:14:17.365Z,62.34
2023-02-24T06:16:44.196Z,62.63
2023-02-24T06:19:12.470Z,62.63
2023-02-24T06:21:41.984Z,62.70
2023-02-24T06:24:15.329Z,62.20
2023-02-24T06:26:45.935Z,61.77
2023-02-24T06:29:17.667Z,62.05
2023-02-24T06:31:45.234Z,62.39
2023-02-24T06:34:14.020Z,61.87
2023-02-24T06:36:40.888Z,61.88
2023-02-24T06:39:08.207Z,61.58
2023-02-24T06:41:37.898Z,62.27
2023-02-24T06:44:04.750Z,62.48
2023-02-24T06:46:32.015Z,63.56
2023-02-24T06:48:58.856Z,63.41
2023-02-24T06:51:30.168Z,63.18
2023-02-24T06:53:59.543Z,63.35
2023-02-24T06:56:27.768Z,63.24
2023-02-24T06:58:56.945Z,63.28
2023-02-24T07:01:26.714Z,62.62
2023-02-24T07:04:02.365Z,62.75
2023-02-24T07:06:31.866Z,62.60
2023-02-24T07:08:59.232Z,62.49
2023-02-24T07:11:28.012Z,62.29
2023-02-24T07:13:57.554Z,62.17
2023-02-24T07:16:25.814Z,62.22
2023-02-24T07:18:57.116Z,62.01
2023-02-24T07:21:30.149Z,62.26
2023-02-24T07:23:59.089Z,62.07
2023-02-24T07:26:27.829Z,61.95
2023-02-24T07:28:56.720Z,61.31
2023-02-24T07:31:24.875Z,61.21
2023-02-24T07:34:02.042Z,60.33
2023-02-24T07:36:38.852Z,59.92
2023-02-24T07:39:09.794Z,59.40
2023-02-24T07:41:37.119Z,59.28
2023-02-24T07:44:05.892Z,59.00
2023-02-24T07:46:33.530Z,58.23
2023-02-24T07:49:01.597Z,59.02
2023-02-24T07:51:29.516Z,59.25
2023-02-24T07:53:59.520Z,59.37
2023-02-24T07:56:28.718Z,59.25
2023-02-24T07:58:59.600Z,58.70
2023-02-24T08:01:31.032Z,58.73
2023-02-24T08:04:01.484Z,58.99
2023-02-24T08:06:38.119Z,59.31
2023-02-24T08:09:21.055Z,59.64
2023-02-24T08:11:53.777Z,59.33
2023-02-24T08:14:25.611Z,59.01
2023-02-24T08:17:05.449Z,59.22
2023-02-24T08:19:39.759Z,59.00
2023-02-24T08:22:21.153Z,58.23
2023-02-24T08:24:53.599Z,57.91
2023-02-24T08:27:25.862Z,58.76
2023-02-24T08:30:03.695Z,58.29
2023-02-24T08:32:44.009Z,58.50
2023-02-24T08:35:16.346Z,61.59
2023-02-24T08:37:47.218Z,59.07
2023-02-24T08:40:32.176Z,58.01
2023-02-24T08:43:16.040Z,58.13
2023-02-24T08:45:51.930Z,57.38
2023-02-24T08:48:42.409Z,58.19
2023-02-24T08:51:22.952Z,57.41
2023-02-24T08:53:56.124Z,57.01
2023-02-24T08:56:34.413Z,56.61
2023-02-24T08:59:07.276Z,56.68
2023-02-24T09:01:39.790Z,56.67
2023-02-24T09:04:08.148Z,56.86
2023-02-24T09:06:40.094Z,56.27
2023-02-24T09:09:21.126Z,57.04
2023-02-24T09:11:59.878Z,55.21
2023-02-24T09:14:36.576Z,55.07
2023-02-24T09:17:11.130Z,56.03
2023-02-24T09:19:47.920Z,53.78
2023-02-24T09:22:31.300Z,54.68
2023-02-24T09:25:40.722Z,55.31
2023-02-24T09:28:18.708Z,56.22
2023-02-24T09:30:54.553Z,56.67
2023-02-24T09:33:29.103Z,57.11
2023-02-24T09:36:09.738Z,57.15
2023-02-24T09:38:57.788Z,57.92
2023-02-24T09:41:54.688Z,57.77
2023-02-24T09:44:27.053Z,57.96
2023-02-24T09:47:09.202Z,58.22
2023-02-24T09:49:46.939Z,58.05
2023-02-24T09:52:17.612Z,57.85
2023-02-24T09:55:18.779Z,57.48
2023-02-24T09:58:16.194Z,57.11
2023-02-24T10:01:23.068Z,56.56
2023-02-24T10:04:19.566Z,56.23
2023-02-24T10:06:57.734Z,56.23
2023-02-24T10:09:34.537Z,56.12
2023-02-24T10:12:20.620Z,56.06
2023-02-24T10:15:24.657Z,56.03
2023-02-24T10:17:58.177Z,55.60
2023-02-24T10:20:40.369Z,54.82
2023-02-24T10:23:13.044Z,54.06
2023-02-24T10:25:54.086Z,53.89
2023-02-24T10:28:57.240Z,54.13
2023-02-24T10:31:46.105Z,53.28
2023-02-24T10:34:21.524Z,53.38
2023-02-24T10:36:50.484Z,53.10
2023-02-24T10:39:26.063Z,52.56
2023-02-24T10:42:15.737Z,51.82
2023-02-24T10:45:01.933Z,52.20
2023-02-24T10:47:31.414Z,51.98
2023-02-24T10:50:01.852Z,51.94
2023-02-24T10:53:04.541Z,51.19
2023-02-24T10:55:56.033Z,50.96
2023-02-24T10:58:28.755Z,50.55
2023-02-24T11:01:12.296Z,51.36
2023-02-24T11:03:46.444Z,51.22
2023-02-24T11:06:51.503Z,51.27
2023-02-24T11:09:30.203Z,50.84
2023-02-24T11:12:18.598Z,50.96
2023-02-24T11:15:43.366Z,50.27
2023-02-24T11:18:19.523Z,50.60
2023-02-24T11:20:54.222Z,50.52
2023-02-24T11:23:29.539Z,50.07
2023-02-24T11:26:04.666Z,49.57
2023-02-24T11:28:50.425Z,49.70
2023-02-24T11:31:37.545Z,49.07
2023-02-24T11:34:18.708Z,48.91
2023-02-24T11:37:14.917Z,49.15
2023-02-24T11:40:07.456Z,49.16
2023-02-24T11:42:43.749Z,48.52
2023-02-24T11:45:13.749Z,47.73
2023-02-24T11:48:16.049Z,48.03
2023-02-24T11:51:11.521Z,48.05
2023-02-24T11:54:04.264Z,48.21
2023-02-24T11:56:44.118Z,48.52
2023-02-24T11:59:13.587Z,48.42
2023-02-24T12:01:55.464Z,47.83
2023-02-24T12:04:30.445Z,47.67
2023-02-24T12:07:14.097Z,47.95
2023-02-24T12:09:50.427Z,47.67
2023-02-24T12:12:24.414Z,47.12
2023-02-24T12:14:58.124Z,47.51
2023-02-24T12:17:44.386Z,46.79
2023-02-24T12:20:23.524Z,46.90
2023-02-24T12:22:56.525Z,47.05
2023-02-24T12:25:29.315Z,46.44
2023-02-24T12:28:10.917Z,46.45
2023-02-24T12:30:51.154Z,46.17
2023-02-24T12:33:27.982Z,45.03
2023-02-24T12:36:09.917Z,45.40
2023-02-24T12:38:55.703Z,45.63
2023-02-24T12:41:40.547Z,46.21
2023-02-24T12:44:13.273Z,44.50
2023-02-24T12:46:40.536Z,44.51
2023-02-24T12:49:27.472Z,43.54
2023-02-24T12:52:14.908Z,43.88
2023-02-24T12:54:51.598Z,44.35
2023-02-24T12:57:31.999Z,43.70
2023-02-24T13:00:06.390Z,42.94
2023-02-24T13:02:51.284Z,42.14
2023-02-24T13:05:45.573Z,41.87
2023-02-24T13:08:45.219Z,41.06
2023-02-24T13:11:43.076Z,40.67
2023-02-24T13:14:21.383Z,40.78
2023-02-24T13:16:48.334Z,41.48
2023-02-24T13:19:28.299Z,41.00
2023-02-24T13:22:03.586Z,41.17
2023-02-24T13:24:30.491Z,41.61
2023-02-24T13:27:12.527Z,41.94
2023-02-24T13:29:48.223Z,40.81
2023-02-24T13:32:34.137Z,40.61
2023-02-24T13:35:25.418Z,40.65
2023-02-24T13:37:53.652Z,41.20
2023-02-24T13:40:23.095Z,41.12
2023-02-24T13:43:01.662Z,41.17
2023-02-24T13:45:33.909Z,40.47
2023-02-24T13:48:21.808Z,40.66
2023-02-24T13:51:08.201Z,41.55
2023-02-24T13:53:40.928Z,40.88
2023-02-24T13:56:13.753Z,41.16
2023-02-24T13:59:05.237Z,40.67
2023-02-24T14:01:44.886Z,40.53
2023-02-24T14:04:25.020Z,39.74
2023-02-24T14:06:55.386Z,38.98
2023-02-24T14:09:26.999Z,38.97
2023-02-24T14:12:25.357Z,38.55
2023-02-24T14:14:53.557Z,38.25
2023-02-24T14:17:30.782Z,38.43
2023-02-24T14:20:09.570Z,38.38
2023-02-24T14:22:44.713Z,38.51
2023-02-24T14:25:12.509Z,38.06
2023-02-24T14:27:40.010Z,37.82
2023-02-24T14:30:08.261Z,38.07
2023-02-24T14:32:35.450Z,38.60
2023-02-24T14:35:02.257Z,38.97
2023-02-24T14:37:31.234Z,39.26
2023-02-24T14:40:05.961Z,39.17
2023-02-24T14:42:32.745Z,39.52
2023-02-24T14:44:59.731Z,39.11
2023-02-24T14:47:28.904Z,39.72
2023-02-24T14:50:02.333Z,40.22
2023-02-24T14:52:53.907Z,40.32
2023-02-24T14:55:32.839Z,40.58
2023-02-24T14:58:18.958Z,41.02
2023-02-24T15:00:53.625Z,41.61
2023-02-24T15:03:29.479Z,42.10
2023-02-24T15:05:59.990Z,42.24
2023-02-24T15:08:29.394Z,42.18
2023-02-24T15:10:56.409Z,42.43
2023-02-24T15:13:37.771Z,43.16
2023-02-24T15:16:27.058Z,42.63
2023-02-24T15:19:01.137Z,43.01
2023-02-24T15:21:40.363Z,42.96
2023-02-24T15:24:32.428Z,43.22
2023-02-24T15:27:21.113Z,43.35
2023-02-24T15:30:02.269Z,43.70
2023-02-24T15:32:31.858Z,43.66
2023-02-24T15:34:59.407Z,44.14
2023-02-24T15:37:29.975Z,44.03
2023-02-24T15:40:05.499Z,44.70
2023-02-24T15:42:34.298Z,44.58
2023-02-24T15:45:22.065Z,44.82
2023-02-24T15:47:55.801Z,44.70
2023-02-24T15:50:23.315Z,44.45
2023-02-24T15:52:50.258Z,44.99
2023-02-24T15:55:19.566Z,44.77
2023-02-24T15:57:47.918Z,44.75
2023-02-24T16:00:21.465Z,45.19
2023-02-24T16:02:48.484Z,45.12
2023-02-24T16:05:15.856Z,44.79
2023-02-24T16:07:47.798Z,44.90
2023-02-24T16:10:19.465Z,44.99
2023-02-24T16:12:53.772Z,45.15
2023-02-24T16:15:25.607Z,45.18
2023-02-24T16:17:53.283Z,45.40
2023-02-24T16:20:37.328Z,45.03
2023-02-24T16:23:05.611Z,45.01
2023-02-24T16:25:38.401Z,45.28
2023-02-24T16:28:05.195Z,44.87
2023-02-24T16:30:32.190Z,45.37
2023-02-24T16:33:01.162Z,45.29
2023-02-24T16:35:28.446Z,45.33
2023-02-24T16:37:55.213Z,45.68
2023-02-24T16:40:30.759Z,45.62
2023-02-24T16:42:57.898Z,45.91
2023-02-24T16:45:29.648Z,46.13
2023-02-24T16:48:02.223Z,46.14
2023-02-24T16:50:33.962Z,45.95
2023-02-24T16:53:01.001Z,46.22
2023-02-24T16:55:28.042Z,46.65
2023-02-24T16:57:54.752Z,46.43
2023-02-24T17:00:24.253Z,46.17
2023-02-24T17:02:52.869Z,45.87
2023-02-24T17:05:24.726Z,46.27
2023-02-24T17:07:52.616Z,46.17
2023-02-24T17:10:21.048Z,46.19
2023-02-24T17:12:48.720Z,46.27
2023-02-24T17:15:20.609Z,46.28
2023-02-24T17:17:47.340Z,46.28
2023-02-24T17:20:16.625Z,46.28
2023-02-24T17:22:44.779Z,46.35
2023-02-24T17:25:20.484Z,46.53
2023-02-24T17:27:47.254Z,46.82
2023-02-24T17:30:18.106Z,47.02
2023-02-24T17:32:44.977Z,46.87
2023-02-24T17:35:11.782Z,46.90
2023-02-24T17:37:38.612Z,46.55
2023-02-24T17:40:06.808Z,46.46
2023-02-24T17:42:33.809Z,46.16
2023-02-24T17:45:00.536Z,46.41
2023-02-24T17:47:27.794Z,46.23
2023-02-24T17:49:54.592Z,46.46
2023-02-24T17:52:21.547Z,46.67
2023-02-24T17:54:48.255Z,46.55
2023-02-24T17:57:15.104Z,46.53
2023-02-24T17:59:48.173Z,46.54
2023-02-24T18:02:17.866Z,47.01
2023-02-24T18:04:44.689Z,47.06
2023-02-24T18:07:12.770Z,47.14
2023-02-24T18:09:39.623Z,47.17
2023-02-24T18:12:06.656Z,46.67
2023-02-24T18:14:33.477Z,47.07
2023-02-24T18:17:00.290Z,47.48
2023-02-24T18:19:27.100Z,47.50
2023-02-24T18:21:53.810Z,47.17
2023-02-24T18:24:22.800Z,47.63
2023-02-24T18:26:50.105Z,47.92
2023-02-24T18:29:16.918Z,48.01
2023-02-24T18:31:43.888Z,48.04
2023-02-24T18:34:10.811Z,47.97
2023-02-24T18:36:37.599Z,48.06
2023-02-24T18:39:05.090Z,48.42
2023-02-24T18:41:31.866Z,48.83
2023-02-24T18:43:59.296Z,48.70
2023-02-24T18:46:27.484Z,49.00
2023-02-24T18:48:55.911Z,49.13
2023-02-24T18:51:23.720Z,49.35
2023-02-24T18:53:52.798Z,49.82
2023-02-24T18:56:25.776Z,50.14
2023-02-24T18:58:56.043Z,50.46
2023-02-24T19:01:29.046Z,50.54
2023-02-24T19:03:56.781Z,50.50
2023-02-24T19:06:26.868Z,51.22
2023-02-24T19:09:06.804Z,51.12
2023-02-24T19:11:34.290Z,51.24
2023-02-24T19:14:01.098Z,51.38
2023-02-24T19:16:28.367Z,51.35
2023-02-24T19:18:57.160Z,51.62
2023-02-24T19:21:25.408Z,51.75
2023-02-24T19:23:52.625Z,51.20
2023-02-24T19:26:25.564Z,51.81
2023-02-24T19:28:53.720Z,52.13
2023-02-24T19:31:23.920Z,52.35
2023-02-24T19:34:03.148Z,52.18
2023-02-24T19:36:32.869Z,52.21
2023-02-24T19:38:59.874Z,52.17
2023-02-24T19:41:27.400Z,53.03
2023-02-24T19:43:55.454Z,53.00
2023-02-24T19:46:23.025Z,52.97
2023-02-24T19:48:50.158Z,53.26
2023-02-24T19:51:20.665Z,53.34
2023-02-24T19:53:47.649Z,53.59
2023-02-24T19:56:14.916Z,53.67
2023-02-24T19:58:41.698Z,53.78
2023-02-24T20:01:13.977Z,53.86
2023-02-24T20:03:42.991Z,54.12
2023-02-24T20:06:21.719Z,54.50
2023-02-24T20:08:48.766Z,54.50
2023-02-24T20:11:15.539Z,54.14
2023-02-24T20:13:42.257Z,54.63
2023-02-24T20:16:12.446Z,54.51
2023-02-24T20:18:40.452Z,54.49
2023-02-24T20:21:07.795Z,54.33
2023-02-24T20:23:34.654Z,54.25
2023-02-24T20:26:01.842Z,54.57
2023-02-24T20:28:29.603Z,56.14
2023-02-24T20:30:58.098Z,54.55
2023-02-24T20:33:26.366Z,55.10
2023-02-24T20:35:53.105Z,55.41
2023-02-24T20:38:20.046Z,55.28
2023-02-24T20:40:56.377Z,55.37
2023-02-24T20:43:23.217Z,55.45
2023-02-24T20:45:50.027Z,55.51
2023-02-24T20:48:16.771Z,55.57
2023-02-24T20:50:43.536Z,55.60
2023-02-24T20:53:10.242Z,55.90
2023-02-24T20:55:37.087Z,55.81
2023-02-24T20:58:03.815Z,55.77
2023-02-24T21:00:30.757Z,55.72
2023-02-24T21:02:58.004Z,55.84
2023-02-24T21:05:28.294Z,56.35
2023-02-24T21:07:55.041Z,56.42
2023-02-24T21:10:25.924Z,56.07
2023-02-24T21:12:53.192Z,56.49
2023-02-24T21:15:20.157Z,56.77
2023-02-24T21:17:46.877Z,56.20
2023-02-24T21:20:14.227Z,56.76
2023-02-24T21:22:41.555Z,56.96
2023-02-24T21:25:13.060Z,57.37
2023-02-24T21:27:39.888Z,57.44
2023-02-24T21:30:09.398Z,57.90
2023-02-24T21:32:36.444Z,57.76
2023-02-24T21:35:03.954Z,57.91
2023-02-24T21:37:30.844Z,58.29
2023-02-24T21:39:57.633Z,58.06
2023-02-24T21:42:24.452Z,58.12
2023-02-24T21:44:51.260Z,58.07
2023-02-24T21:47:18.899Z,58.40
2023-02-24T21:49:46.326Z,58.45
2023-02-24T21:52:13.453Z,58.48
2023-02-24T21:54:42.314Z,59.28
2023-02-24T21:57:09.145Z,59.14
2023-02-24T21:59:35.903Z,59.29
2023-02-24T22:02:02.745Z,59.70
2023-02-24T22:04:29.567Z,60.01
2023-02-24T22:06:56.320Z,59.68
2023-02-24T22:09:23.059Z,59.84
2023-02-24T22:11:50.126Z,59.39
2023-02-24T22:14:17.529Z,59.93
2023-02-24T22:16:44.592Z,59.82
2023-02-24T22:19:11.999Z,59.61
2023-02-24T22:21:42.103Z,59.72
2023-02-24T22:24:12.663Z,59.18
2023-02-24T22:26:40.198Z,59.42
2023-02-24T22:29:07.276Z,59.68
2023-02-24T22:31:36.523Z,60.08
2023-02-24T22:34:04.447Z,60.30
2023-02-24T22:36:36.685Z,59.65
2023-02-24T22:39:04.521Z,60.04
2023-02-24T22:41:33.916Z,60.19
2023-02-24T22:44:02.673Z,60.24
2023-02-24T22:46:32.751Z,60.76
2023-02-24T22:48:59.688Z,61.18
2023-02-24T22:51:27.604Z,61.61
2023-02-24T22:53:55.164Z,61.65
2023-02-24T22:56:27.775Z,61.82
2023-02-24T22:58:55.227Z,61.48
2023-02-24T23:01:31.324Z,61.80
2023-02-24T23:04:02.763Z,61.47
2023-02-24T23:06:30.866Z,61.84
2023-02-24T23:09:00.168Z,62.21
2023-02-24T23:11:45.690Z,62.25
2023-02-24T23:14:14.478Z,62.74
2023-02-24T23:16:44.481Z,62.63
2023-02-24T23:19:16.076Z,63.14
2023-02-24T23:21:49.753Z,63.52
2023-02-24T23:24:17.776Z,63.28
2023-02-24T23:26:45.922Z,63.28
2023-02-24T23:29:14.941Z,63.03
2023-02-24T23:31:42.258Z,63.27
2023-02-24T23:34:10.380Z,62.73
2023-02-24T23:36:39.356Z,63.02
2023-02-24T23:39:07.902Z,63.22
2023-02-24T23:41:35.998Z,63.01
2023-02-24T23:44:05.590Z,62.70
2023-02-24T23:46:33.514Z,63.13
2023-02-24T23:49:00.452Z,63.13
2023-02-24T23:51:33.353Z,63.35
2023-02-24T23:54:05.652Z,62.88
2023-02-24T23:56:32.501Z,62.85
2023-02-24T23:58:59.838Z,63.02
